aviador You're here:

KUGN Decoded Metar

CHICAGO in IL, USA
Report Time2018-07-17 04:55:00
UTC Time2018-07-17 05:45:59
Flight Rules vfr VFR
Wind290° at 04 kt
W.Decomp.*RWY 32: 3.6 kt HW 1.8 kt LCW
RWY 23: 1.8 kt HW 3.6 kt RCW
W.Rank290° ranks 7
Current wind is below 290° avg. (6.4)
Visibility9999 m
Phenomena:N/A
Clouds:N/A
Expected CloudBase > 1,600 ft AGL from Temp-Dew spread
CeilingNone
Temp20°C (ISA +6)
Dew Point16°C (78% RH)
QNH1016 hPa
Density Alt1,624 ft
Elevation728 ft
Report Wrong Elevation
Raw Report
KUGN 170455Z AUTO 29004KT 10SM CLR 20/16 A2999 RMK AO2 SLP141
T02000156=

Extra information for KUGN:More info

Metar Taf Metar & Taf Last 4 Metars F.Rules Stats Wind Profile Meteogram Temp Stats Airport Information Weather charts Add Link Nearby VenuesMetar ALERT Operation Metar Decoded Social comments

AIRNAV info for KUGN